createdAt,value
2024-04-26T00:00:46.022Z,5.20
2024-04-26T00:03:18.703Z,5.50
2024-04-26T00:05:53.379Z,5.20
2024-04-26T00:08:24.883Z,4.90
2024-04-26T00:10:56.599Z,5.03
2024-04-26T00:13:28.027Z,4.70
2024-04-26T00:15:59.850Z,4.80
2024-04-26T00:18:31.688Z,4.10
2024-04-26T00:21:06.265Z,4.90
2024-04-26T00:23:37.842Z,4.87
2024-04-26T00:26:12.215Z,4.73
2024-04-26T00:28:43.639Z,4.87
2024-04-26T00:31:15.126Z,4.50
2024-04-26T00:33:46.592Z,5.30
2024-04-26T00:36:21.067Z,5.00
2024-04-26T00:38:52.685Z,4.47
2024-04-26T00:41:24.291Z,4.60
2024-04-26T00:44:07.130Z,4.43
2024-04-26T00:46:38.962Z,4.70
2024-04-26T00:49:10.792Z,4.50
2024-04-26T00:51:45.519Z,4.57
2024-04-26T00:54:18.660Z,4.90
2024-04-26T00:56:50.419Z,4.53
2024-04-26T00:59:22.791Z,4.40
2024-04-26T01:01:54.267Z,4.50
2024-04-26T01:04:25.794Z,4.60
2024-04-26T01:07:00.350Z,4.50
2024-04-26T01:09:31.900Z,4.80
2024-04-26T01:12:04.271Z,4.60
2024-04-26T01:14:35.886Z,5.20
2024-04-26T01:17:07.375Z,4.70
2024-04-26T01:19:38.857Z,4.93
2024-04-26T01:22:21.028Z,4.60
2024-04-26T01:24:55.603Z,4.57
2024-04-26T01:27:27.090Z,4.40
2024-04-26T01:29:58.681Z,4.33
2024-04-26T01:32:30.223Z,4.50
2024-04-26T01:35:01.699Z,4.50
2024-04-26T01:37:33.348Z,4.77
2024-04-26T01:40:08.379Z,4.40
2024-04-26T01:42:39.945Z,4.73
2024-04-26T01:45:11.682Z,5.07
2024-04-26T01:47:43.196Z,4.90
2024-04-26T01:50:14.649Z,4.83
2024-04-26T01:52:46.326Z,5.00
2024-04-26T01:55:20.841Z,4.90
2024-04-26T01:57:49.418Z,5.07
2024-04-26T02:00:21.087Z,5.20
2024-04-26T02:02:49.737Z,5.10
2024-04-26T02:05:21.678Z,5.57
2024-04-26T02:07:50.409Z,5.10
2024-04-26T02:10:25.267Z,5.00
2024-04-26T02:12:53.776Z,5.37
2024-04-26T02:15:25.294Z,5.43
2024-04-26T02:17:53.954Z,5.40
2024-04-26T02:20:25.483Z,5.40
2024-04-26T02:22:53.917Z,5.80
2024-04-26T02:25:28.883Z,5.80
2024-04-26T02:28:00.350Z,5.53
2024-04-26T02:30:31.793Z,5.90
2024-04-26T02:33:03.398Z,5.90
2024-04-26T02:35:34.938Z,5.80
2024-04-26T02:38:06.505Z,6.00
2024-04-26T02:40:40.952Z,5.70
2024-04-26T02:43:12.431Z,5.50
2024-04-26T02:45:43.860Z,5.43
2024-04-26T02:48:15.714Z,5.70
2024-04-26T02:50:47.344Z,6.57
2024-04-26T02:53:18.866Z,6.13
2024-04-26T02:55:53.316Z,5.60
2024-04-26T02:58:25.004Z,6.37
2024-04-26T03:00:56.462Z,6.73
2024-04-26T03:03:28.839Z,6.23
2024-04-26T03:06:01.200Z,6.77
2024-04-26T03:08:32.719Z,6.40
2024-04-26T03:11:07.323Z,6.60
2024-04-26T03:13:39.234Z,6.97
2024-04-26T03:16:11.370Z,6.63
2024-04-26T03:18:43.207Z,7.23
2024-04-26T03:21:14.861Z,6.40
2024-04-26T03:23:46.441Z,6.87
2024-04-26T03:26:21.051Z,6.87
2024-04-26T03:28:52.492Z,6.93
2024-04-26T03:31:24.793Z,7.10
2024-04-26T03:33:56.342Z,7.17
2024-04-26T03:36:27.850Z,7.30
2024-04-26T03:38:59.335Z,7.10
2024-04-26T03:41:33.977Z,7.20
2024-04-26T03:44:05.362Z,7.10
2024-04-26T03:46:36.949Z,7.47
2024-04-26T03:49:08.712Z,7.20
2024-04-26T03:51:40.300Z,7.80
2024-04-26T03:54:11.796Z,6.73
2024-04-26T03:56:46.393Z,7.67
2024-04-26T03:59:17.899Z,7.60
2024-04-26T04:01:50.162Z,7.17
2024-04-26T04:04:22.233Z,7.97
2024-04-26T04:06:53.744Z,7.03
2024-04-26T04:09:25.128Z,7.63
2024-04-26T04:11:59.844Z,7.23
2024-04-26T04:14:31.467Z,7.40
2024-04-26T04:17:03.572Z,8.00
2024-04-26T04:19:33.835Z,8.17
2024-04-26T04:22:07.391Z,7.40
2024-04-26T04:24:39.035Z,7.23
2024-04-26T04:27:13.898Z,7.50
2024-04-26T04:29:45.605Z,7.50
2024-04-26T04:32:17.172Z,7.23
2024-04-26T04:34:48.656Z,6.83
2024-04-26T04:37:20.185Z,7.70
2024-04-26T04:39:51.596Z,7.07
2024-04-26T04:42:26.108Z,7.63
2024-04-26T04:44:57.778Z,7.80
2024-04-26T04:47:26.435Z,6.93
2024-04-26T04:49:57.965Z,6.97
2024-04-26T04:52:29.388Z,7.07
2024-04-26T04:55:00.889Z,6.90
2024-04-26T04:57:35.509Z,6.67
2024-04-26T05:00:08.297Z,7.00
2024-04-26T05:02:39.939Z,6.60
2024-04-26T05:05:11.510Z,7.10
2024-04-26T05:07:42.920Z,7.03
2024-04-26T05:10:14.392Z,6.90
2024-04-26T05:12:49.450Z,6.30
2024-04-26T05:15:21.040Z,6.40
2024-04-26T05:17:53.079Z,6.07
2024-04-26T05:20:24.820Z,5.40
2024-04-26T05:22:56.276Z,5.90
2024-04-26T05:25:27.680Z,5.80
2024-04-26T05:28:02.091Z,5.90
2024-04-26T05:30:33.595Z,5.40
2024-04-26T05:33:05.166Z,5.73
2024-04-26T05:35:36.813Z,5.50
2024-04-26T05:38:08.607Z,5.40
2024-04-26T05:40:40.141Z,4.80
2024-04-26T05:43:14.636Z,5.33
2024-04-26T05:45:46.124Z,4.60
2024-04-26T05:48:17.941Z,4.53
2024-04-26T05:50:49.784Z,4.60
2024-04-26T05:53:21.306Z,5.00
2024-04-26T05:55:52.977Z,5.03
2024-04-26T05:58:27.468Z,5.33
2024-04-26T06:00:58.940Z,4.63
2024-04-26T06:03:30.672Z,4.37
2024-04-26T06:06:03.620Z,4.83
2024-04-26T06:08:37.648Z,4.87
2024-04-26T06:11:10.358Z,4.90
2024-04-26T06:13:44.984Z,5.13
2024-04-26T06:16:16.686Z,4.83
2024-04-26T06:18:48.381Z,4.60
2024-04-26T06:21:20.092Z,5.40
2024-04-26T06:23:51.808Z,4.70
2024-04-26T06:26:23.545Z,4.47
2024-04-26T06:28:58.034Z,4.60
2024-04-26T06:31:29.643Z,4.00
2024-04-26T06:34:01.115Z,3.83
2024-04-26T06:36:32.725Z,4.00
2024-04-26T06:39:04.308Z,4.10
2024-04-26T06:41:35.979Z,4.00
2024-04-26T06:44:20.511Z,3.70
2024-04-26T06:46:53.067Z,3.73
2024-04-26T06:49:22.065Z,3.70
2024-04-26T06:51:53.590Z,3.97
2024-04-26T06:54:24.998Z,3.77
2024-04-26T06:56:56.581Z,3.80
2024-04-26T06:59:31.788Z,4.00
2024-04-26T07:02:04.624Z,3.80
2024-04-26T07:04:36.399Z,4.30
2024-04-26T07:07:08.109Z,3.67
2024-04-26T07:09:39.572Z,4.27
2024-04-26T07:12:13.713Z,3.77
2024-04-26T07:14:49.748Z,3.60
2024-04-26T07:17:21.126Z,3.70
2024-04-26T07:19:52.754Z,3.40
2024-04-26T07:22:24.226Z,3.40
2024-04-26T07:24:58.242Z,3.50
2024-04-26T07:27:29.812Z,4.97
2024-04-26T07:30:04.515Z,3.03
2024-04-26T07:32:36.313Z,3.60
2024-04-26T07:35:08.129Z,3.17
2024-04-26T07:37:39.751Z,3.50
2024-04-26T07:40:12.726Z,3.97
2024-04-26T07:42:44.143Z,3.30
2024-04-26T07:45:18.789Z,3.43
2024-04-26T07:47:50.548Z,3.40
2024-04-26T07:50:23.658Z,3.23
2024-04-26T07:52:55.209Z,3.03
2024-04-26T07:55:27.488Z,2.90
2024-04-26T07:57:59.013Z,2.90
2024-04-26T08:00:35.267Z,2.87
2024-04-26T08:03:08.160Z,3.20
2024-04-26T08:05:39.710Z,2.90
2024-04-26T08:08:11.551Z,2.70
2024-04-26T08:10:43.131Z,3.13
2024-04-26T08:13:14.614Z,2.80
2024-04-26T08:15:50.291Z,2.70
2024-04-26T08:18:21.907Z,2.90
2024-04-26T08:20:55.311Z,3.50
2024-04-26T08:23:26.850Z,2.80
2024-04-26T08:26:04.802Z,3.23
2024-04-26T08:28:36.542Z,3.17
2024-04-26T08:31:10.974Z,2.95
2024-04-26T08:33:42.761Z,2.83
2024-04-26T08:36:14.721Z,2.80
2024-04-26T08:38:48.422Z,3.05
2024-04-26T08:41:20.031Z,2.85
2024-04-26T08:43:51.620Z,3.20
2024-04-26T08:46:37.043Z,2.97
2024-04-26T08:49:17.810Z,3.30
2024-04-26T08:51:51.337Z,2.80
2024-04-26T08:54:23.702Z,2.97
2024-04-26T08:57:03.992Z,2.97
2024-04-26T08:59:39.969Z,2.80
2024-04-26T09:02:16.586Z,2.50
2024-04-26T09:04:49.832Z,2.80
2024-04-26T09:07:21.463Z,2.45
2024-04-26T09:09:53.344Z,2.40
2024-04-26T09:12:23.764Z,2.80
2024-04-26T09:14:55.337Z,2.40
2024-04-26T09:17:32.586Z,2.60
2024-04-26T09:20:04.095Z,2.53
2024-04-26T09:22:38.706Z,2.63
2024-04-26T09:25:11.126Z,2.40
2024-04-26T09:27:42.525Z,2.35
2024-04-26T09:30:14.819Z,2.30
2024-04-26T09:32:54.997Z,2.50
2024-04-26T09:35:36.044Z,2.20
2024-04-26T09:38:09.758Z,2.30
2024-04-26T09:40:41.426Z,2.45
2024-04-26T09:43:13.555Z,2.40
2024-04-26T09:45:46.697Z,2.20
2024-04-26T09:48:22.366Z,1.92
2024-04-26T09:50:56.086Z,2.20
2024-04-26T09:53:29.857Z,2.20
2024-04-26T09:56:02.226Z,2.35
2024-04-26T09:58:33.787Z,2.17
2024-04-26T10:01:07.460Z,2.40
2024-04-26T10:03:48.466Z,2.00
2024-04-26T10:06:20.500Z,1.73
2024-04-26T10:08:52.082Z,1.77
2024-04-26T10:11:29.047Z,2.00
2024-04-26T10:14:04.804Z,2.10
2024-04-26T10:16:39.025Z,2.25
2024-04-26T10:19:21.631Z,1.85
2024-04-26T10:21:53.247Z,1.83
2024-04-26T10:24:24.716Z,2.08
2024-04-26T10:27:00.449Z,2.22
2024-04-26T10:29:32.171Z,2.10
2024-04-26T10:32:09.345Z,1.77
2024-04-26T10:34:46.549Z,2.03
2024-04-26T10:37:19.842Z,2.08
2024-04-26T10:39:51.243Z,2.33
2024-04-26T10:42:24.447Z,2.20
2024-04-26T10:44:56.037Z,2.00
2024-04-26T10:47:27.723Z,2.00
2024-04-26T10:50:02.269Z,2.15
2024-04-26T10:52:33.889Z,2.10
2024-04-26T10:55:05.401Z,2.42
2024-04-26T10:57:36.683Z,1.83
2024-04-26T11:00:08.519Z,2.05
2024-04-26T11:02:40.427Z,2.00
2024-04-26T11:05:15.171Z,2.25
2024-04-26T11:07:58.802Z,2.03
2024-04-26T11:10:32.502Z,1.83
2024-04-26T11:13:04.276Z,1.95
2024-04-26T11:15:35.733Z,2.33
2024-04-26T11:18:07.836Z,1.85
2024-04-26T11:20:42.657Z,1.83
2024-04-26T11:23:14.244Z,1.80
2024-04-26T11:25:45.739Z,1.92
2024-04-26T11:28:17.248Z,2.05
2024-04-26T11:30:48.685Z,1.73
2024-04-26T11:33:25.318Z,1.90
2024-04-26T11:36:05.525Z,1.88
2024-04-26T11:38:37.122Z,1.88
2024-04-26T11:41:08.777Z,1.98
2024-04-26T11:43:40.269Z,1.70
2024-04-26T11:46:11.828Z,1.88
2024-04-26T11:48:43.492Z,1.70
2024-04-26T11:51:18.819Z,1.65
2024-04-26T11:53:50.451Z,1.73
2024-04-26T11:56:22.022Z,2.00
2024-04-26T11:58:53.451Z,1.75
2024-04-26T12:01:24.886Z,1.80
2024-04-26T12:03:57.856Z,1.90
2024-04-26T12:06:32.425Z,1.70
2024-04-26T12:09:04.009Z,1.70
2024-04-26T12:11:35.530Z,1.77
2024-04-26T12:14:07.022Z,1.70
2024-04-26T12:16:38.498Z,1.55
2024-04-26T12:19:10.028Z,1.50
2024-04-26T12:21:44.565Z,1.85
2024-04-26T12:24:16.034Z,1.90
2024-04-26T12:26:47.649Z,2.00
2024-04-26T12:29:24.115Z,2.08
2024-04-26T12:31:57.538Z,2.17
2024-04-26T12:34:29.670Z,2.22
2024-04-26T12:37:04.704Z,1.92
2024-04-26T12:39:38.445Z,2.22
2024-04-26T12:42:09.908Z,2.55
2024-04-26T12:44:44.323Z,3.10
2024-04-26T12:47:19.311Z,2.70
2024-04-26T12:49:50.703Z,2.63
2024-04-26T12:52:25.133Z,2.75
2024-04-26T12:54:57.012Z,2.88
2024-04-26T12:57:29.454Z,3.10
2024-04-26T13:00:00.967Z,2.65
2024-04-26T13:02:32.557Z,3.10
2024-04-26T13:05:04.067Z,2.65
2024-04-26T13:07:38.522Z,3.03
2024-04-26T13:10:10.897Z,2.80
2024-04-26T13:12:42.469Z,3.15
2024-04-26T13:15:14.123Z,3.25
2024-04-26T13:17:45.924Z,2.78
2024-04-26T13:20:18.060Z,2.80
2024-04-26T13:22:52.937Z,2.60
2024-04-26T13:25:24.579Z,2.80
2024-04-26T13:27:56.169Z,2.78
2024-04-26T13:30:29.224Z,2.42
2024-04-26T13:33:02.676Z,2.80
2024-04-26T13:35:34.764Z,3.00
2024-04-26T13:38:09.605Z,2.70
2024-04-26T13:40:40.866Z,2.90
2024-04-26T13:43:12.465Z,2.78
2024-04-26T13:45:45.507Z,2.92
2024-04-26T13:48:17.804Z,2.97
2024-04-26T13:50:49.624Z,2.58
2024-04-26T13:53:24.548Z,2.63
2024-04-26T13:55:56.233Z,2.80
2024-04-26T13:58:27.864Z,2.83
2024-04-26T14:00:59.562Z,2.20
2024-04-26T14:03:31.445Z,2.35
2024-04-26T14:06:03.616Z,2.42
2024-04-26T14:08:40.052Z,2.30
2024-04-26T14:11:11.772Z,2.05
2024-04-26T14:13:43.482Z,2.22
2024-04-26T14:16:20.426Z,2.47
2024-04-26T14:18:53.530Z,2.20
2024-04-26T14:21:25.724Z,2.20
2024-04-26T14:24:01.158Z,2.28
2024-04-26T14:26:33.535Z,2.28
2024-04-26T14:29:05.377Z,2.10
2024-04-26T14:31:37.176Z,2.05
2024-04-26T14:34:08.916Z,2.00
2024-04-26T14:36:40.622Z,1.88
2024-04-26T14:39:15.546Z,2.20
2024-04-26T14:41:49.518Z,2.08
2024-04-26T14:44:21.271Z,2.03
2024-04-26T14:46:52.913Z,2.03
2024-04-26T14:49:25.017Z,2.00
2024-04-26T14:51:57.420Z,1.70
2024-04-26T14:54:32.202Z,1.85
2024-04-26T14:57:04.189Z,1.80
2024-04-26T14:59:32.838Z,1.77
2024-04-26T15:02:04.714Z,1.52
2024-04-26T15:04:37.517Z,1.40
2024-04-26T15:07:14.350Z,1.40
2024-04-26T15:09:52.010Z,1.50
2024-04-26T15:12:24.074Z,1.50
2024-04-26T15:14:55.905Z,1.95
2024-04-26T15:17:27.706Z,1.63
2024-04-26T15:19:59.511Z,1.50
2024-04-26T15:22:31.376Z,1.40
2024-04-26T15:25:06.093Z,1.30
2024-04-26T15:27:39.995Z,1.40
2024-04-26T15:30:12.511Z,1.40
2024-04-26T15:32:44.093Z,1.30
2024-04-26T15:35:15.866Z,1.42
2024-04-26T15:37:48.580Z,1.38
2024-04-26T15:40:23.701Z,1.20
2024-04-26T15:42:55.538Z,1.33
2024-04-26T15:45:27.381Z,1.05
2024-04-26T15:47:59.356Z,1.35
2024-04-26T15:50:31.012Z,1.10
2024-04-26T15:53:03.192Z,1.10
2024-04-26T15:55:38.006Z,1.10
2024-04-26T15:58:09.585Z,1.20
2024-04-26T16:00:42.138Z,1.30
2024-04-26T16:03:13.854Z,1.50
2024-04-26T16:05:45.668Z,1.20
2024-04-26T16:08:17.316Z,1.50
2024-04-26T16:10:52.246Z,1.30
2024-04-26T16:13:23.922Z,1.15
2024-04-26T16:15:55.786Z,1.30
2024-04-26T16:18:27.633Z,1.25
2024-04-26T16:20:59.296Z,1.27
2024-04-26T16:23:30.933Z,1.20
2024-04-26T16:26:05.707Z,1.10
2024-04-26T16:28:38.427Z,1.40
2024-04-26T16:31:10.124Z,1.20
2024-04-26T16:33:44.231Z,1.17
2024-04-26T16:36:16.094Z,1.40
2024-04-26T16:38:47.900Z,1.25
2024-04-26T16:41:22.679Z,1.20
2024-04-26T16:43:55.883Z,1.20
2024-04-26T16:46:29.532Z,1.35
2024-04-26T16:49:01.814Z,1.20
2024-04-26T16:51:34.028Z,1.20
2024-04-26T16:54:08.191Z,1.30
2024-04-26T16:56:44.440Z,1.58
2024-04-26T16:59:15.956Z,1.40
2024-04-26T17:01:47.780Z,1.20
2024-04-26T17:04:19.567Z,1.35
2024-04-26T17:06:51.261Z,1.35
2024-04-26T17:09:22.772Z,1.50
2024-04-26T17:11:59.642Z,1.30
2024-04-26T17:14:31.266Z,1.40
2024-04-26T17:17:02.917Z,1.20
2024-04-26T17:19:34.858Z,1.40
2024-04-26T17:22:07.265Z,1.40
2024-04-26T17:24:39.510Z,1.30
2024-04-26T17:27:14.407Z,2.70
2024-04-26T17:29:46.236Z,1.77
2024-04-26T17:32:18.166Z,1.80
2024-04-26T17:34:49.881Z,2.50
2024-04-26T17:37:21.481Z,1.60
2024-04-26T17:40:04.055Z,1.55
2024-04-26T17:42:38.963Z,1.50
2024-04-26T17:45:10.882Z,1.40
2024-04-26T17:47:42.859Z,1.73
2024-04-26T17:50:15.510Z,1.90
2024-04-26T17:52:47.166Z,1.70
2024-04-26T17:55:19.026Z,1.73
2024-04-26T17:57:56.285Z,1.85
2024-04-26T18:00:29.621Z,1.65
2024-04-26T18:03:01.504Z,1.77
2024-04-26T18:05:33.239Z,2.00
2024-04-26T18:08:05.708Z,1.98
2024-04-26T18:10:37.358Z,1.80
2024-04-26T18:13:12.250Z,1.80
2024-04-26T18:15:43.954Z,2.13
2024-04-26T18:18:15.641Z,2.40
2024-04-26T18:20:47.428Z,2.80
2024-04-26T18:23:19.114Z,3.00
2024-04-26T18:25:50.886Z,2.90
2024-04-26T18:28:25.848Z,2.80
2024-04-26T18:30:57.583Z,2.50
2024-04-26T18:33:30.251Z,2.10
2024-04-26T18:36:01.857Z,3.60
2024-04-26T18:38:36.138Z,2.93
2024-04-26T18:41:09.573Z,3.20
2024-04-26T18:43:45.948Z,3.40
2024-04-26T18:46:18.689Z,3.10
2024-04-26T18:48:50.758Z,2.80
2024-04-26T18:51:22.884Z,3.00
2024-04-26T18:53:54.693Z,3.00
2024-04-26T18:56:26.399Z,2.90
2024-04-26T18:59:02.146Z,2.63
2024-04-26T19:01:34.169Z,2.87
2024-04-26T19:04:05.911Z,2.80
2024-04-26T19:06:37.826Z,2.30
2024-04-26T19:09:09.626Z,1.97
2024-04-26T19:11:41.405Z,2.20
2024-04-26T19:14:16.324Z,2.20
2024-04-26T19:16:48.000Z,2.23
2024-04-26T19:19:19.878Z,2.70
2024-04-26T19:21:51.763Z,3.20
2024-04-26T19:24:23.169Z,3.40
2024-04-26T19:26:55.412Z,3.30
2024-04-26T19:29:30.371Z,4.13
2024-04-26T19:32:02.358Z,6.17
2024-04-26T19:34:34.300Z,5.87
2024-04-26T19:37:06.092Z,6.53
2024-04-26T19:39:39.161Z,5.50
2024-04-26T19:42:11.410Z,5.60
2024-04-26T19:44:46.263Z,5.17
2024-04-26T19:47:18.611Z,4.80
2024-04-26T19:49:50.471Z,5.37
2024-04-26T19:52:33.974Z,5.07
2024-04-26T19:55:20.819Z,4.80
2024-04-26T19:57:53.083Z,5.30
2024-04-26T20:00:28.014Z,6.00
2024-04-26T20:02:59.872Z,5.97
2024-04-26T20:05:31.740Z,6.20
2024-04-26T20:08:03.831Z,6.67
2024-04-26T20:10:35.633Z,6.50
2024-04-26T20:13:08.383Z,6.70
2024-04-26T20:15:43.296Z,6.20
2024-04-26T20:18:15.687Z,6.50
2024-04-26T20:20:48.678Z,6.67
2024-04-26T20:23:20.534Z,5.93
2024-04-26T20:25:52.358Z,5.73
2024-04-26T20:28:25.242Z,6.13
2024-04-26T20:31:00.674Z,6.20
2024-04-26T20:33:32.565Z,6.60
2024-04-26T20:36:04.291Z,6.10
2024-04-26T20:38:38.609Z,5.77
2024-04-26T20:41:11.125Z,5.77
2024-04-26T20:43:43.125Z,5.40
2024-04-26T20:46:20.942Z,5.07
2024-04-26T20:48:52.885Z,5.43
2024-04-26T20:51:24.693Z,5.87
2024-04-26T20:53:56.340Z,5.80
2024-04-26T20:56:32.580Z,5.47
2024-04-26T20:59:09.487Z,5.60
2024-04-26T21:01:44.475Z,5.43
2024-04-26T21:04:16.296Z,5.77
2024-04-26T21:06:48.210Z,5.23
2024-04-26T21:09:20.026Z,5.20
2024-04-26T21:11:52.096Z,5.13
2024-04-26T21:14:26.328Z,5.40
2024-04-26T21:17:01.359Z,5.03
2024-04-26T21:19:33.579Z,5.70
2024-04-26T21:22:06.287Z,5.53
2024-04-26T21:24:38.093Z,5.30
2024-04-26T21:27:10.935Z,5.60
2024-04-26T21:29:42.798Z,4.93
2024-04-26T21:32:17.762Z,5.97
2024-04-26T21:34:49.550Z,5.53
2024-04-26T21:37:21.346Z,5.50
2024-04-26T21:39:53.763Z,5.40
2024-04-26T21:42:25.748Z,4.87
2024-04-26T21:44:57.508Z,5.00
2024-04-26T21:47:32.708Z,4.73
2024-04-26T21:50:04.713Z,5.27
2024-04-26T21:52:36.504Z,5.67
2024-04-26T21:55:08.614Z,5.27
2024-04-26T21:57:40.351Z,5.07
2024-04-26T22:00:13.136Z,5.40
2024-04-26T22:02:50.798Z,5.10
2024-04-26T22:05:25.599Z,6.00
2024-04-26T22:07:57.588Z,5.77
2024-04-26T22:10:30.335Z,5.30
2024-04-26T22:13:02.655Z,5.13
2024-04-26T22:15:34.306Z,5.30
2024-04-26T22:18:09.615Z,5.80
2024-04-26T22:20:43.767Z,6.37
2024-04-26T22:23:15.963Z,6.67
2024-04-26T22:25:47.870Z,5.97
2024-04-26T22:28:19.679Z,6.33
2024-04-26T22:30:51.500Z,6.70
2024-04-26T22:33:26.871Z,6.33
2024-04-26T22:35:58.639Z,5.90
2024-04-26T22:38:32.310Z,5.93
2024-04-26T22:41:04.872Z,6.50
2024-04-26T22:43:36.810Z,6.77
2024-04-26T22:46:08.903Z,7.33
2024-04-26T22:48:44.055Z,7.57
2024-04-26T22:51:15.953Z,7.13
2024-04-26T22:53:47.609Z,7.30
2024-04-26T22:56:19.244Z,8.67
2024-04-26T22:58:50.957Z,6.60
2024-04-26T23:01:22.867Z,6.70
2024-04-26T23:03:57.781Z,6.50
2024-04-26T23:06:29.615Z,6.30
2024-04-26T23:09:01.434Z,6.73
2024-04-26T23:11:36.869Z,5.97
2024-04-26T23:14:09.483Z,6.13
2024-04-26T23:16:41.389Z,6.47
2024-04-26T23:19:16.396Z,6.37
2024-04-26T23:21:48.406Z,5.63
2024-04-26T23:24:20.219Z,5.80
2024-04-26T23:26:51.945Z,5.83
2024-04-26T23:29:23.746Z,6.03
2024-04-26T23:31:55.662Z,6.47
2024-04-26T23:34:30.873Z,6.10
2024-04-26T23:37:02.661Z,6.30
2024-04-26T23:39:34.387Z,6.70
2024-04-26T23:42:06.215Z,6.40
2024-04-26T23:44:37.905Z,5.67
2024-04-26T23:47:09.751Z,6.13
2024-04-26T23:49:44.902Z,5.93
2024-04-26T23:52:16.616Z,6.27
2024-04-26T23:54:48.267Z,6.57
2024-04-26T23:57:20.056Z,6.67
2024-04-26T23:59:51.783Z,6.50
